Time;durP1;ratioP1;P1;durP2;ratioP2;P2;SDS_P1;SDS_P2;PMS_P1;PMS_P2;Temp;Humidity;BMP_temperature;BMP_pressure;BME280_temperature;BME280_humidity;BME280_pressure;Samples;Min_cycle;Max_cycle;Signal;HPM_P1;HPM_P2
2023/03/27 00:01:15;;;;;;;6.90;2.20;;;5.20;99.90;;;;;;5078094;28;20459;-69
2023/03/27 00:03:43;;;;;;;6.50;2.23;;;5.20;99.90;;;;;;5077599;28;20504;-68
2023/03/27 00:06:15;;;;;;;5.20;2.40;;;5.10;99.90;;;;;;5077926;28;20450;-68
2023/03/27 00:08:42;;;;;;;6.27;2.57;;;5.00;99.90;;;;;;5077977;28;20473;-68
2023/03/27 00:11:10;;;;;;;5.20;2.03;;;5.00;99.90;;;;;;5078135;28;20561;-68
2023/03/27 00:13:38;;;;;;;5.73;2.13;;;5.00;99.90;;;;;;5078119;28;20494;-68
2023/03/27 00:16:06;;;;;;;6.60;2.27;;;5.00;99.90;;;;;;5077711;28;20545;-67
2023/03/27 00:18:33;;;;;;;6.53;2.83;;;5.00;99.90;;;;;;5077448;28;20464;-67
2023/03/27 00:21:02;;;;;;;5.63;2.80;;;5.00;99.90;;;;;;5077324;28;20446;-69
2023/03/27 00:23:29;;;;;;;5.10;2.20;;;4.90;99.90;;;;;;5077505;28;20464;-67
2023/03/27 00:25:57;;;;;;;8.60;2.87;;;4.80;99.90;;;;;;5077220;28;20472;-66
2023/03/27 00:28:27;;;;;;;7.43;2.40;;;4.70;99.90;;;;;;5077513;28;20549;-68
2023/03/27 00:30:55;;;;;;;2.87;2.10;;;4.70;99.90;;;;;;5077017;28;20481;-68
2023/03/27 00:33:22;;;;;;;3.67;2.20;;;4.70;99.90;;;;;;5077274;28;20951;-68
2023/03/27 00:35:50;;;;;;;7.60;2.20;;;4.70;99.90;;;;;;5077265;28;20864;-69
2023/03/27 00:38:18;;;;;;;6.93;2.40;;;4.70;99.90;;;;;;5077162;28;20484;-68
2023/03/27 00:40:47;;;;;;;6.53;2.90;;;4.70;99.90;;;;;;5077297;28;20553;-68
2023/03/27 00:43:24;;;;;;;6.13;2.23;;;4.70;99.90;;;;;;5076718;28;20458;-69
2023/03/27 00:46:00;;;;;;;6.17;2.33;;;4.60;99.90;;;;;;5077449;28;20496;-68
2023/03/27 00:48:28;;;;;;;4.83;2.40;;;4.60;99.90;;;;;;5077235;28;20446;-68
2023/03/27 00:50:57;;;;;;;6.43;2.30;;;4.60;99.90;;;;;;5076571;28;21028;-68
2023/03/27 00:53:27;;;;;;;4.83;1.90;;;4.70;99.90;;;;;;5076709;28;20454;-68
2023/03/27 00:55:59;;;;;;;5.20;2.60;;;4.70;99.90;;;;;;5077198;28;20453;-69
2023/03/27 00:58:30;;;;;;;8.77;2.40;;;4.70;99.90;;;;;;5076909;28;20446;-68
2023/03/27 01:00:58;;;;;;;5.30;2.47;;;4.60;99.90;;;;;;5077448;28;20442;-69
2023/03/27 01:03:29;;;;;;;3.67;2.10;;;4.60;99.90;;;;;;5079635;28;20576;-69
2023/03/27 01:05:57;;;;;;;2.90;1.80;;;4.60;99.90;;;;;;5080169;28;20526;-70
2023/03/27 01:08:26;;;;;;;6.57;2.33;;;4.60;99.90;;;;;;5080099;28;20454;-66
2023/03/27 01:11:00;;;;;;;5.17;2.50;;;4.50;99.90;;;;;;5077703;28;20469;-66
2023/03/27 01:13:41;;;;;;;6.83;2.33;;;4.50;99.90;;;;;;5076792;28;20724;-66
2023/03/27 01:16:15;;;;;;;3.80;2.17;;;4.40;99.90;;;;;;5076929;28;20449;-68
2023/03/27 01:18:55;;;;;;;3.07;2.23;;;4.40;99.90;;;;;;5077514;28;20824;-68
2023/03/27 01:21:52;;;;;;;7.20;2.70;;;4.40;99.90;;;;;;5076501;28;20439;-69
2023/03/27 01:24:48;;;;;;;7.77;2.33;;;4.30;99.90;;;;;;5076621;28;20453;-70
2023/03/27 01:27:19;;;;;;;6.27;2.50;;;4.20;99.90;;;;;;5076143;28;20441;-68
2023/03/27 01:30:09;;;;;;;5.80;2.27;;;4.20;99.90;;;;;;5077100;28;20498;-68
2023/03/27 01:33:17;;;;;;;6.00;2.10;;;4.20;99.90;;;;;;5076814;28;20562;-68
2023/03/27 01:36:03;;;;;;;7.43;3.07;;;4.20;99.90;;;;;;5077163;28;20801;-68
2023/03/27 01:39:04;;;;;;;5.37;1.93;;;4.30;99.90;;;;;;5076806;28;20460;-70
2023/03/27 01:41:35;;;;;;;3.13;2.03;;;4.30;99.90;;;;;;5076716;28;20470;-69
2023/03/27 01:44:08;;;;;;;6.50;3.07;;;4.30;99.90;;;;;;5076606;28;20442;-69
2023/03/27 01:46:40;;;;;;;4.60;2.20;;;4.20;99.90;;;;;;5076415;28;20442;-69
2023/03/27 01:49:12;;;;;;;4.30;2.30;;;4.20;99.90;;;;;;5075840;28;20454;-69
2023/03/27 01:51:43;;;;;;;4.30;1.97;;;4.30;99.90;;;;;;5075486;28;20947;-70
2023/03/27 01:54:16;;;;;;;6.50;1.97;;;4.30;99.90;;;;;;5075818;28;20615;-69
2023/03/27 01:56:52;;;;;;;7.07;2.60;;;4.30;99.90;;;;;;5075510;28;20453;-69
2023/03/27 01:59:22;;;;;;;7.20;3.80;;;4.30;99.90;;;;;;5075512;28;20914;-70
2023/03/27 02:01:53;;;;;;;7.53;2.50;;;4.20;99.90;;;;;;5075325;28;20477;-71
2023/03/27 02:04:26;;;;;;;2.63;1.90;;;4.00;99.90;;;;;;5074414;28;20529;-70
2023/03/27 02:06:57;;;;;;;3.23;1.97;;;4.10;99.90;;;;;;5075136;28;20496;-69
2023/03/27 02:09:29;;;;;;;3.00;2.00;;;4.00;99.90;;;;;;5075275;28;20534;-70
2023/03/27 02:12:06;;;;;;;3.40;2.00;;;4.00;99.90;;;;;;5075296;28;20466;-70
2023/03/27 02:14:38;;;;;;;2.53;2.17;;;4.00;99.90;;;;;;5075466;28;20910;-70
2023/03/27 02:17:10;;;;;;;4.27;2.23;;;4.00;99.90;;;;;;5074940;28;20542;-70
2023/03/27 02:19:41;;;;;;;4.57;1.90;;;3.90;99.90;;;;;;5075304;28;20452;-70
2023/03/27 02:22:08;;;;;;;9.50;2.50;;;4.00;99.90;;;;;;5075122;28;20778;-70
2023/03/27 02:24:37;;;;;;;3.93;3.63;;;4.00;99.90;;;;;;5075229;28;20519;-70
2023/03/27 02:27:12;;;;;;;4.47;2.60;;;4.00;99.90;;;;;;5074990;28;20545;-70
2023/03/27 02:29:50;;;;;;;4.00;2.10;;;4.00;99.90;;;;;;5075151;28;20806;-70
2023/03/27 02:32:30;;;;;;;1.70;1.60;;;3.90;99.90;;;;;;5075159;28;20795;-69
2023/03/27 02:35:04;;;;;;;3.83;2.00;;;3.90;99.90;;;;;;5074989;28;20449;-70
2023/03/27 02:37:40;;;;;;;2.63;1.70;;;3.70;99.90;;;;;;5074975;28;20743;-69
2023/03/27 02:40:15;;;;;;;2.90;1.77;;;3.70;99.90;;;;;;5074847;28;20452;-71
2023/03/27 02:42:57;;;;;;;3.57;2.23;;;3.60;99.90;;;;;;5074911;28;20525;-70
2023/03/27 02:45:30;;;;;;;2.80;1.87;;;3.60;99.90;;;;;;5074537;28;20481;-70
2023/03/27 02:48:02;;;;;;;4.07;2.23;;;3.50;99.90;;;;;;5074893;28;20752;-70
2023/03/27 02:50:34;;;;;;;3.00;2.00;;;3.50;99.90;;;;;;5074870;28;20438;-70
2023/03/27 02:53:04;;;;;;;1.63;1.53;;;3.50;99.90;;;;;;5074264;28;20466;-70
2023/03/27 02:55:35;;;;;;;3.50;1.40;;;3.50;99.90;;;;;;5074835;28;20514;-69
2023/03/27 02:58:07;;;;;;;3.30;1.97;;;3.40;99.90;;;;;;5075524;28;20443;-70
2023/03/27 03:00:39;;;;;;;4.83;1.80;;;3.40;99.90;;;;;;5074510;28;20474;-70
2023/03/27 03:03:08;;;;;;;4.13;1.80;;;3.40;99.90;;;;;;5074198;28;20485;-70
2023/03/27 03:05:36;;;;;;;2.20;1.67;;;3.40;99.90;;;;;;5074453;28;20595;-70
2023/03/27 03:08:04;;;;;;;2.77;1.60;;;3.30;99.90;;;;;;5074925;28;20501;-70
2023/03/27 03:10:32;;;;;;;2.50;1.43;;;3.30;99.90;;;;;;5074232;28;20458;-70
2023/03/27 03:12:59;;;;;;;4.07;1.63;;;3.30;99.90;;;;;;5074584;28;20489;-71
2023/03/27 03:15:27;;;;;;;1.97;1.40;;;3.30;99.90;;;;;;5074310;28;20486;-69
2023/03/27 03:17:54;;;;;;;3.07;1.40;;;3.30;99.90;;;;;;5074914;28;20480;-69
2023/03/27 03:20:22;;;;;;;2.80;1.77;;;3.30;99.90;;;;;;5074546;28;20454;-69
2023/03/27 03:22:49;;;;;;;2.07;1.87;;;3.30;99.90;;;;;;5074653;28;20450;-71
2023/03/27 03:25:16;;;;;;;2.50;2.00;;;3.20;99.90;;;;;;5074370;28;20466;-69
2023/03/27 03:27:43;;;;;;;1.77;1.53;;;3.20;99.90;;;;;;5074640;28;20462;-69
2023/03/27 03:30:11;;;;;;;2.27;1.50;;;3.10;99.90;;;;;;5074656;28;20537;-69
2023/03/27 03:32:39;;;;;;;4.27;1.60;;;3.00;99.90;;;;;;5074356;28;20806;-70
2023/03/27 03:35:07;;;;;;;2.73;1.87;;;3.10;99.90;;;;;;5074573;28;20458;-70
2023/03/27 03:37:37;;;;;;;5.97;1.77;;;3.00;99.90;;;;;;5074317;28;20511;-70
2023/03/27 03:40:10;;;;;;;2.20;1.60;;;3.00;99.90;;;;;;5074896;28;20454;-70
2023/03/27 03:42:37;;;;;;;3.90;2.20;;;3.00;99.90;;;;;;5074129;28;20529;-70
2023/03/27 03:45:05;;;;;;;4.27;1.90;;;3.00;99.90;;;;;;5074293;28;20797;-70
2023/03/27 03:47:32;;;;;;;2.03;1.83;;;3.00;99.90;;;;;;5074152;28;20556;-70
2023/03/27 03:50:00;;;;;;;1.60;1.47;;;3.00;99.90;;;;;;5073765;28;20454;-69
2023/03/27 03:52:27;;;;;;;3.17;1.77;;;3.00;99.90;;;;;;5074185;28;20569;-68
2023/03/27 03:54:54;;;;;;;5.07;2.10;;;2.90;99.90;;;;;;5074475;28;20457;-70
2023/03/27 03:57:21;;;;;;;3.10;1.83;;;2.80;99.90;;;;;;5074237;28;20461;-67
2023/03/27 03:59:48;;;;;;;2.87;2.30;;;2.80;99.90;;;;;;5074429;28;20464;-67
2023/03/27 04:02:27;;;;;;;6.40;2.10;;;2.80;99.90;;;;;;5073977;28;20474;-67
2023/03/27 04:04:54;;;;;;;2.50;1.83;;;2.70;99.90;;;;;;5074295;28;20750;-68
2023/03/27 04:07:22;;;;;;;2.70;1.83;;;2.70;99.90;;;;;;5073967;28;20853;-67
2023/03/27 04:09:49;;;;;;;3.00;2.00;;;2.60;99.90;;;;;;5074354;28;20454;-65
2023/03/27 04:12:16;;;;;;;1.90;1.77;;;2.60;99.90;;;;;;5074354;28;20853;-66
2023/03/27 04:14:43;;;;;;;2.30;2.10;;;2.70;99.90;;;;;;5073964;28;20458;-67
2023/03/27 04:17:10;;;;;;;3.77;1.90;;;2.70;99.90;;;;;;5073922;28;20553;-67
2023/03/27 04:19:37;;;;;;;2.30;2.10;;;2.70;99.90;;;;;;5074048;28;20808;-67
2023/03/27 04:22:05;;;;;;;3.13;2.10;;;2.70;99.90;;;;;;5073902;28;20450;-66
2023/03/27 04:24:34;;;;;;;2.53;2.00;;;2.70;99.90;;;;;;5074050;28;20550;-66
2023/03/27 04:27:01;;;;;;;2.33;2.10;;;2.70;99.90;;;;;;5074710;28;20511;-67
2023/03/27 04:29:29;;;;;;;2.40;2.17;;;2.60;99.90;;;;;;5077671;28;20464;-67
2023/03/27 04:31:56;;;;;;;2.37;2.17;;;2.60;99.90;;;;;;5077019;28;20454;-67
2023/03/27 04:34:23;;;;;;;6.20;2.83;;;2.60;99.90;;;;;;5076949;28;20454;-66
2023/03/27 04:36:50;;;;;;;11.57;3.20;;;2.50;99.90;;;;;;5076875;28;20458;-66
2023/03/27 04:39:18;;;;;;;2.77;2.20;;;2.60;99.90;;;;;;5077189;28;20481;-66
2023/03/27 04:41:53;;;;;;;5.77;2.33;;;2.60;99.90;;;;;;5076918;28;20458;-66
2023/03/27 04:44:20;;;;;;;2.23;1.70;;;2.60;99.90;;;;;;5076933;28;20773;-67
2023/03/27 04:46:48;;;;;;;3.00;2.40;;;2.60;99.90;;;;;;5076980;28;20831;-67
2023/03/27 04:49:17;;;;;;;2.43;1.83;;;2.50;99.90;;;;;;5076872;28;20562;-67
2023/03/27 04:51:44;;;;;;;5.80;3.87;;;2.50;99.90;;;;;;5076513;28;20465;-68
2023/03/27 04:54:12;;;;;;;3.40;2.10;;;2.50;99.90;;;;;;5076872;28;20547;-67
2023/03/27 04:56:40;;;;;;;3.23;2.23;;;2.50;99.90;;;;;;5077061;28;20807;-67
2023/03/27 04:59:08;;;;;;;4.53;2.20;;;2.50;99.90;;;;;;5077382;28;20462;-67
2023/03/27 05:01:35;;;;;;;3.73;2.00;;;2.50;99.90;;;;;;5077610;28;20469;-68
2023/03/27 05:04:02;;;;;;;4.43;2.40;;;2.50;99.90;;;;;;5076769;28;20938;-68
2023/03/27 05:06:29;;;;;;;5.27;2.20;;;2.50;99.90;;;;;;5076628;28;20930;-67
2023/03/27 05:08:56;;;;;;;3.40;2.83;;;2.60;99.90;;;;;;5076537;28;20541;-67
2023/03/27 05:11:22;;;;;;;4.20;3.00;;;2.60;99.90;;;;;;5076279;28;20460;-67
2023/03/27 05:13:49;;;;;;;3.47;2.70;;;2.60;99.90;;;;;;5076517;28;20478;-66
2023/03/27 05:16:18;;;;;;;5.40;3.00;;;2.70;99.90;;;;;;5076322;28;20453;-66
2023/03/27 05:18:45;;;;;;;3.80;2.70;;;2.70;99.90;;;;;;5076464;28;20781;-68
2023/03/27 05:21:12;;;;;;;3.50;2.40;;;2.60;99.90;;;;;;5076069;28;20990;-67
2023/03/27 05:23:39;;;;;;;3.27;2.30;;;2.50;99.90;;;;;;5076438;28;20547;-67
2023/03/27 05:26:06;;;;;;;4.83;2.90;;;2.50;99.90;;;;;;5076401;28;20464;-66
2023/03/27 05:28:33;;;;;;;4.73;2.60;;;2.40;99.90;;;;;;5076302;28;20454;-67
2023/03/27 05:31:00;;;;;;;4.60;2.60;;;2.40;99.90;;;;;;5076527;28;20560;-68
2023/03/27 05:33:28;;;;;;;4.27;2.80;;;2.40;99.90;;;;;;5075884;28;20946;-67
2023/03/27 05:35:56;;;;;;;3.20;2.33;;;2.40;99.90;;;;;;5076378;28;20779;-67
2023/03/27 05:38:23;;;;;;;4.93;3.33;;;2.40;99.90;;;;;;5076024;28;20464;-68
2023/03/27 05:40:51;;;;;;;7.43;2.80;;;2.40;99.90;;;;;;5075734;28;20465;-67
2023/03/27 05:43:17;;;;;;;4.53;3.33;;;2.30;99.90;;;;;;5076315;28;20561;-67
2023/03/27 05:45:44;;;;;;;5.63;3.53;;;2.30;99.90;;;;;;5075871;28;20556;-68
2023/03/27 05:48:11;;;;;;;4.70;3.73;;;2.30;99.90;;;;;;5075998;28;20549;-67
2023/03/27 05:50:40;;;;;;;7.43;3.43;;;2.20;99.90;;;;;;5075899;28;20458;-67
2023/03/27 05:53:10;;;;;;;4.13;3.00;;;2.30;99.90;;;;;;5076661;28;20474;-68
2023/03/27 05:55:38;;;;;;;3.03;2.70;;;2.30;99.90;;;;;;5076789;28;20512;-68
2023/03/27 05:58:08;;;;;;;4.60;2.77;;;2.20;99.90;;;;;;5076915;28;20458;-68
2023/03/27 06:00:35;;;;;;;3.10;2.40;;;2.30;99.90;;;;;;5077243;28;20450;-67
2023/03/27 06:03:03;;;;;;;3.17;2.30;;;2.30;99.90;;;;;;5077121;28;20478;-67
2023/03/27 06:05:31;;;;;;;2.93;2.53;;;2.30;99.90;;;;;;5075637;28;20455;-68
2023/03/27 06:08:01;;;;;;;4.13;2.80;;;2.20;99.90;;;;;;5075436;28;20787;-68
2023/03/27 06:10:29;;;;;;;3.50;3.07;;;2.30;99.90;;;;;;5075331;28;20455;-67
2023/03/27 06:13:01;;;;;;;3.50;2.80;;;2.40;99.90;;;;;;5075455;28;20489;-68
2023/03/27 06:15:29;;;;;;;4.40;2.80;;;2.40;99.90;;;;;;5075726;28;20462;-67
2023/03/27 06:17:56;;;;;;;3.43;2.73;;;2.40;99.90;;;;;;5075237;28;20758;-67
2023/03/27 06:20:23;;;;;;;4.97;2.60;;;2.40;99.90;;;;;;5075505;28;20454;-67
2023/03/27 06:22:51;;;;;;;5.43;2.67;;;2.40;99.90;;;;;;5075435;28;20545;-67
2023/03/27 06:25:20;;;;;;;3.70;2.33;;;2.40;99.90;;;;;;5075305;28;20512;-66
2023/03/27 06:27:49;;;;;;;3.20;2.50;;;2.50;99.90;;;;;;5075422;28;20454;-68
2023/03/27 06:30:18;;;;;;;5.70;2.80;;;2.50;99.90;;;;;;5075195;28;20483;-67
2023/03/27 06:32:46;;;;;;;3.83;2.57;;;2.60;99.90;;;;;;5074860;28;20569;-69
2023/03/27 06:35:13;;;;;;;4.73;2.50;;;2.70;99.90;;;;;;5075013;28;20462;-68
2023/03/27 06:37:41;;;;;;;3.90;2.60;;;2.70;99.90;;;;;;5074688;28;20914;-68
2023/03/27 06:40:09;;;;;;;2.83;2.20;;;2.70;99.90;;;;;;5074702;28;20455;-67
2023/03/27 06:42:38;;;;;;;3.37;2.20;;;2.80;99.90;;;;;;5074900;28;20531;-67
2023/03/27 06:45:05;;;;;;;4.20;2.70;;;3.00;99.90;;;;;;5074298;28;20929;-67
2023/03/27 06:47:34;;;;;;;4.10;2.90;;;3.20;99.90;;;;;;5074100;28;20468;-66
2023/03/27 06:50:01;;;;;;;4.47;3.07;;;3.30;99.90;;;;;;5074161;28;20794;-68
2023/03/27 06:52:27;;;;;;;4.30;3.77;;;3.40;99.90;;;;;;5074396;28;20565;-67
2023/03/27 06:54:54;;;;;;;10.00;2.90;;;3.50;99.90;;;;;;5075590;28;20767;-67
2023/03/27 06:57:21;;;;;;;4.87;2.67;;;3.50;99.90;;;;;;5074863;28;20454;-67
2023/03/27 06:59:50;;;;;;;3.10;2.80;;;3.60;99.90;;;;;;5077162;28;20802;-66
2023/03/27 07:02:17;;;;;;;3.00;2.70;;;3.70;99.90;;;;;;5075800;28;20958;-67
2023/03/27 07:04:44;;;;;;;5.23;2.77;;;3.70;99.90;;;;;;5076773;28;20521;-68
2023/03/27 07:07:11;;;;;;;3.37;2.30;;;3.70;99.90;;;;;;5074398;28;20461;-67
2023/03/27 07:09:38;;;;;;;5.23;3.10;;;3.60;99.90;;;;;;5075047;28;20469;-68
2023/03/27 07:12:05;;;;;;;3.97;2.80;;;3.40;99.90;;;;;;5074840;28;20523;-67
2023/03/27 07:14:31;;;;;;;3.90;2.60;;;3.30;99.90;;;;;;5075424;28;20488;-67
2023/03/27 07:17:00;;;;;;;3.00;2.80;;;3.30;99.90;;;;;;5075138;28;20565;-66
2023/03/27 07:19:27;;;;;;;2.90;2.13;;;3.30;99.90;;;;;;5074536;28;20454;-67
2023/03/27 07:21:54;;;;;;;3.90;2.30;;;3.30;99.90;;;;;;5074377;28;20454;-67
2023/03/27 07:24:20;;;;;;;2.30;2.10;;;3.30;99.90;;;;;;5074246;28;20454;-67
2023/03/27 07:26:47;;;;;;;3.00;2.70;;;3.30;99.90;;;;;;5074048;28;20458;-67
2023/03/27 07:29:14;;;;;;;4.50;2.60;;;3.40;99.90;;;;;;5074359;28;20462;-67
2023/03/27 07:31:41;;;;;;;2.53;2.23;;;3.50;99.90;;;;;;5074305;28;20883;-66
2023/03/27 07:34:09;;;;;;;3.20;2.53;;;3.50;99.90;;;;;;5074150;28;20524;-66
2023/03/27 07:36:36;;;;;;;3.73;2.30;;;3.50;99.90;;;;;;5074421;28;20617;-67
2023/03/27 07:39:03;;;;;;;4.03;2.47;;;3.60;99.90;;;;;;5074202;28;20465;-67
2023/03/27 07:41:30;;;;;;;2.90;2.30;;;3.70;99.90;;;;;;5074363;28;20461;-67
2023/03/27 07:43:57;;;;;;;5.10;3.10;;;3.80;99.90;;;;;;5074171;28;20461;-65
2023/03/27 07:46:25;;;;;;;4.57;3.07;;;3.90;99.90;;;;;;5074004;28;20550;-67
2023/03/27 07:48:52;;;;;;;4.30;2.47;;;4.10;99.90;;;;;;5074101;28;20787;-67
2023/03/27 07:51:20;;;;;;;5.30;2.67;;;4.10;99.90;;;;;;5074237;28;20462;-70
2023/03/27 07:53:48;;;;;;;2.60;2.40;;;4.20;99.90;;;;;;5074429;28;20492;-67
2023/03/27 07:56:14;;;;;;;3.00;2.40;;;4.30;99.90;;;;;;5074504;28;20795;-67
2023/03/27 07:58:41;;;;;;;3.67;2.40;;;4.30;99.90;;;;;;5073916;28;20933;-68
2023/03/27 08:01:08;;;;;;;3.13;2.93;;;4.30;99.90;;;;;;5074131;28;20454;-67
2023/03/27 08:03:36;;;;;;;2.53;2.07;;;4.30;99.90;;;;;;5077452;28;20825;-67
2023/03/27 08:06:03;;;;;;;2.40;2.10;;;4.20;99.90;;;;;;5077543;28;20929;-68
2023/03/27 08:08:32;;;;;;;3.83;2.13;;;4.10;99.90;;;;;;5077722;28;20458;-67
2023/03/27 08:11:01;;;;;;;3.30;2.17;;;4.10;99.90;;;;;;5077745;28;20544;-67
2023/03/27 08:13:28;;;;;;;4.97;2.30;;;4.10;99.90;;;;;;5077524;28;20482;-68
2023/03/27 08:16:03;;;;;;;2.77;1.97;;;4.00;99.90;;;;;;5078092;28;20453;-67
2023/03/27 08:18:30;;;;;;;2.70;2.13;;;4.00;99.90;;;;;;5077928;28;20441;-69
2023/03/27 08:20:58;;;;;;;5.03;2.20;;;3.90;99.90;;;;;;5077912;28;20819;-68
2023/03/27 08:23:25;;;;;;;2.93;2.00;;;4.00;99.90;;;;;;5077758;28;20472;-68
2023/03/27 08:25:59;;;;;;;3.13;1.80;;;4.10;99.90;;;;;;5077722;28;20450;-67
2023/03/27 08:28:26;;;;;;;1.87;1.73;;;4.30;99.90;;;;;;5077367;28;20529;-67
2023/03/27 08:30:53;;;;;;;2.17;1.97;;;4.40;99.90;;;;;;5077737;28;20462;-67
2023/03/27 08:33:21;;;;;;;2.30;2.00;;;4.50;99.90;;;;;;5077235;28;20962;-67
2023/03/27 08:35:48;;;;;;;2.40;2.20;;;4.70;99.90;;;;;;5077428;28;20462;-67
2023/03/27 08:38:15;;;;;;;5.47;1.70;;;4.80;99.90;;;;;;5077636;28;20468;-67
2023/03/27 08:40:47;;;;;;;1.93;1.67;;;4.80;99.90;;;;;;5077188;28;20454;-68
2023/03/27 08:43:20;;;;;;;1.90;1.70;;;5.00;99.90;;;;;;5077419;28;20533;-67
2023/03/27 08:45:52;;;;;;;3.30;1.70;;;5.00;99.90;;;;;;5077484;28;20839;-66
2023/03/27 08:48:22;;;;;;;2.20;1.77;;;5.10;99.90;;;;;;5076821;28;20439;-66
2023/03/27 08:50:54;;;;;;;4.23;1.73;;;5.10;99.90;;;;;;5076953;28;20478;-67
2023/03/27 08:53:32;;;;;;;2.20;2.00;;;5.20;99.90;;;;;;5076549;28;20533;-67
2023/03/27 08:56:00;;;;;;;1.87;1.60;;;5.00;99.90;;;;;;5077238;28;20442;-67
2023/03/27 08:58:29;;;;;;;2.20;1.80;;;5.00;99.90;;;;;;5076922;28;20505;-67
2023/03/27 09:01:03;;;;;;;2.10;1.80;;;5.00;99.90;;;;;;5077006;28;20549;-67
2023/03/27 09:03:46;;;;;;;2.53;2.17;;;4.90;99.90;;;;;;5076796;28;20473;-66
2023/03/27 09:06:23;;;;;;;6.23;2.00;;;5.10;99.90;;;;;;5077635;28;20488;-66
2023/03/27 09:09:02;;;;;;;4.00;2.27;;;5.10;99.90;;;;;;5077031;28;20907;-66
2023/03/27 09:11:39;;;;;;;3.40;1.80;;;5.10;99.90;;;;;;5076357;28;20442;-67
2023/03/27 09:14:26;;;;;;;1.93;1.60;;;5.00;99.90;;;;;;5075975;28;20562;-66
2023/03/27 09:16:56;;;;;;;4.23;1.87;;;4.90;99.90;;;;;;5076346;28;20962;-66
2023/03/27 09:19:32;;;;;;;3.03;1.50;;;5.00;99.90;;;;;;5076338;28;20867;-67
2023/03/27 09:22:07;;;;;;;1.83;1.73;;;5.10;99.90;;;;;;5076569;28;21012;-68
2023/03/27 09:24:39;;;;;;;2.27;1.50;;;5.20;99.90;;;;;;5076568;28;20469;-68
2023/03/27 09:27:17;;;;;;;3.23;1.70;;;5.30;99.90;;;;;;5076645;28;20537;-66
2023/03/27 09:29:49;;;;;;;3.03;1.63;;;5.20;99.90;;;;;;5076071;28;20443;-67
2023/03/27 09:32:16;;;;;;;3.60;1.77;;;5.10;99.90;;;;;;5076299;28;20453;-67
2023/03/27 09:34:43;;;;;;;3.90;1.80;;;5.10;99.90;;;;;;5076012;28;20492;-67
2023/03/27 09:37:15;;;;;;;3.97;3.10;;;5.20;99.90;;;;;;5076059;28;20500;-68
2023/03/27 09:39:47;;;;;;;2.57;1.50;;;5.10;99.90;;;;;;5076084;28;20442;-68
2023/03/27 09:42:19;;;;;;;2.73;2.00;;;5.20;99.90;;;;;;5076359;28;20446;-68
2023/03/27 09:44:53;;;;;;;1.70;1.60;;;5.20;99.90;;;;;;5076254;28;20438;-67
2023/03/27 09:47:25;;;;;;;1.77;1.67;;;5.40;99.90;;;;;;5076335;28;20504;-67
2023/03/27 09:49:57;;;;;;;2.60;1.70;;;5.50;99.90;;;;;;5076394;28;20533;-67
2023/03/27 09:52:35;;;;;;;3.10;1.70;;;5.60;99.90;;;;;;5075522;28;20521;-67
2023/03/27 09:55:04;;;;;;;1.53;1.30;;;5.50;99.90;;;;;;5075252;28;20573;-67
2023/03/27 09:57:32;;;;;;;3.20;1.70;;;5.50;99.90;;;;;;5075568;28;20454;-67
2023/03/27 10:00:08;;;;;;;2.53;1.70;;;5.50;99.90;;;;;;5075417;28;20486;-67
2023/03/27 10:02:37;;;;;;;1.93;1.40;;;5.50;99.90;;;;;;5075608;28;20481;-67
2023/03/27 10:05:10;;;;;;;1.93;1.53;;;5.60;99.90;;;;;;5075011;28;20450;-67
2023/03/27 10:07:39;;;;;;;1.83;1.47;;;5.70;99.90;;;;;;5075396;28;20537;-70
2023/03/27 10:10:10;;;;;;;3.00;1.90;;;5.70;99.90;;;;;;5075453;28;20454;-70
2023/03/27 10:12:39;;;;;;;1.80;1.40;;;5.70;99.90;;;;;;5075078;28;20435;-67
2023/03/27 10:15:27;;;;;;;4.00;1.67;;;5.70;99.90;;;;;;5075160;28;20490;-67
2023/03/27 10:17:55;;;;;;;2.10;1.80;;;5.80;99.90;;;;;;5075388;28;20439;-67
2023/03/27 10:20:23;;;;;;;2.40;1.40;;;5.80;99.90;;;;;;5075766;28;20458;-67
2023/03/27 10:22:52;;;;;;;4.90;1.50;;;5.90;99.90;;;;;;5074742;28;20927;-68
2023/03/27 10:25:20;;;;;;;1.63;1.30;;;5.70;99.90;;;;;;5074163;28;20544;-68
2023/03/27 10:27:47;;;;;;;2.10;1.60;;;5.60;99.90;;;;;;5074617;28;20454;-68
2023/03/27 10:30:28;;;;;;;2.47;1.80;;;5.60;99.90;;;;;;5074901;28;20538;-67
2023/03/27 10:32:55;;;;;;;1.93;1.30;;;5.60;99.90;;;;;;5075136;28;20474;-66
2023/03/27 10:35:25;;;;;;;1.93;1.30;;;5.60;99.90;;;;;;5074842;28;20531;-67
2023/03/27 10:37:53;;;;;;;2.30;1.60;;;5.80;99.90;;;;;;5074862;28;20938;-67
2023/03/27 10:40:24;;;;;;;1.33;1.23;;;5.90;99.90;;;;;;5074833;28;20776;-67
2023/03/27 10:42:51;;;;;;;1.90;1.50;;;6.00;99.90;;;;;;5074625;28;20458;-67
2023/03/27 10:45:20;;;;;;;1.57;1.30;;;6.00;99.90;;;;;;5074571;28;20450;-67
2023/03/27 10:47:52;;;;;;;5.40;1.50;;;6.00;99.90;;;;;;5075125;28;20559;-67
2023/03/27 10:50:21;;;;;;;4.67;1.60;;;5.90;98.80;;;;;;5075587;28;20464;-67
2023/03/27 10:53:00;;;;;;;2.90;1.27;;;6.00;96.20;;;;;;5075105;28;20457;-66
2023/03/27 10:55:43;;;;;;;2.30;1.60;;;6.00;95.80;;;;;;5074570;28;20535;-68
2023/03/27 10:58:27;;;;;;;8.70;3.10;;;6.00;97.50;;;;;;5074832;28;20490;-67
2023/03/27 11:01:01;;;;;;;3.50;2.53;;;6.00;98.60;;;;;;5074818;28;20442;-68
2023/03/27 11:03:34;;;;;;;2.83;1.80;;;6.00;96.90;;;;;;5074138;28;20510;-66
2023/03/27 11:06:05;;;;;;;3.83;1.40;;;5.90;94.70;;;;;;5074737;28;20434;-67
2023/03/27 11:08:38;;;;;;;4.90;1.70;;;6.00;93.50;;;;;;5074782;28;20496;-67
2023/03/27 11:11:14;;;;;;;2.33;1.43;;;6.10;91.70;;;;;;5074570;28;20460;-68
2023/03/27 11:13:44;;;;;;;4.10;1.47;;;6.30;92.70;;;;;;5074320;28;20449;-67
2023/03/27 11:16:16;;;;;;;1.93;1.53;;;6.40;90.50;;;;;;5074156;28;20468;-67
2023/03/27 11:18:49;;;;;;;6.00;1.77;;;6.40;83.10;;;;;;5074402;28;20481;-67
2023/03/27 11:21:21;;;;;;;2.43;1.30;;;6.50;86.00;;;;;;5074428;28;20443;-67
2023/03/27 11:23:52;;;;;;;1.57;1.37;;;6.70;85.40;;;;;;5074511;28;20518;-67
2023/03/27 11:26:22;;;;;;;2.67;1.30;;;7.00;84.30;;;;;;5074761;28;20815;-68
2023/03/27 11:28:55;;;;;;;1.70;1.57;;;7.10;86.40;;;;;;5074349;28;20546;-68
2023/03/27 11:31:34;;;;;;;2.90;1.50;;;7.10;83.10;;;;;;5073956;28;20438;-67
2023/03/27 11:34:05;;;;;;;2.80;1.70;;;7.20;77.90;;;;;;5074309;28;20507;-67
2023/03/27 11:36:44;;;;;;;2.33;1.60;;;7.40;74.70;;;;;;5076719;28;20878;-67
2023/03/27 11:39:18;;;;;;;1.60;1.40;;;7.30;73.20;;;;;;5078801;28;20442;-67
2023/03/27 11:41:51;;;;;;;2.33;1.93;;;6.90;70.30;;;;;;5078784;28;20453;-67
2023/03/27 11:44:17;;;;;;;2.20;1.40;;;7.00;71.70;;;;;;5078349;28;20445;-67
2023/03/27 11:47:17;;;;;;;2.17;1.20;;;7.60;65.80;;;;;;5078421;28;20472;-67
2023/03/27 11:50:03;;;;;;;1.70;1.07;;;7.80;62.90;;;;;;5078442;28;20474;-67
2023/03/27 11:52:42;;;;;;;1.40;1.23;;;7.90;59.50;;;;;;5078617;28;20879;-67
2023/03/27 11:55:23;;;;;;;1.70;1.23;;;7.80;59.60;;;;;;5078262;28;20466;-67
2023/03/27 11:58:06;;;;;;;3.40;1.37;;;7.50;61.70;;;;;;5078180;28;20438;-67
2023/03/27 12:00:38;;;;;;;2.77;1.40;;;8.30;64.60;;;;;;5078057;28;20956;-68
2023/03/27 12:03:42;;;;;;;2.00;1.10;;;9.20;60.00;;;;;;5077898;28;20802;-68
2023/03/27 12:06:15;;;;;;;1.10;1.00;;;9.80;57.60;;;;;;5078155;28;20426;-67
2023/03/27 12:09:00;;;;;;;4.40;2.63;;;9.80;51.20;;;;;;5077682;28;20434;-68
2023/03/27 12:11:30;;;;;;;1.90;1.50;;;9.70;48.10;;;;;;5078071;28;20523;-66
2023/03/27 12:14:29;;;;;;;2.40;1.27;;;9.40;49.20;;;;;;5077672;28;20454;-67
2023/03/27 12:17:19;;;;;;;2.57;1.40;;;9.40;50.30;;;;;;5077829;28;20449;-68
2023/03/27 12:20:10;;;;;;;1.43;1.00;;;9.50;49.60;;;;;;5077583;28;20449;-66
2023/03/27 12:22:46;;;;;;;1.80;1.33;;;10.40;48.10;;;;;;5077318;28;20525;-67
2023/03/27 12:25:54;;;;;;;4.80;1.27;;;10.80;45.50;;;;;;5077460;28;20438;-68
2023/03/27 12:28:33;;;;;;;1.43;1.20;;;10.80;42.20;;;;;;5016569;28;20451;-69
2023/03/27 12:31:18;;;;;;;2.47;1.00;;;11.30;44.30;;;;;;5075960;28;20860;-68
2023/03/27 12:33:55;;;;;;;3.20;1.33;;;12.20;42.30;;;;;;5079550;28;20443;-69
2023/03/27 12:36:26;;;;;;;2.33;1.30;;;12.30;39.50;;;;;;5077134;28;20476;-68
2023/03/27 12:38:55;;;;;;;2.97;1.17;;;12.40;40.70;;;;;;5077095;28;20449;-68
2023/03/27 12:41:24;;;;;;;1.47;0.93;;;13.10;35.80;;;;;;5076948;28;20454;-67
2023/03/27 12:43:56;;;;;;;1.00;0.80;;;13.00;33.00;;;;;;5077767;28;20468;-66
2023/03/27 12:46:36;;;;;;;2.20;1.20;;;12.30;33.60;;;;;;5077717;28;20451;-66
2023/03/27 12:49:25;;;;;;;2.43;1.70;;;11.20;35.80;;;;;;5076112;28;20943;-68
2023/03/27 12:52:04;;;;;;;1.83;1.10;;;10.20;38.20;;;;;;5076789;28;20763;-67
2023/03/27 12:54:34;;;;;;;2.00;1.40;;;9.40;42.10;;;;;;5076957;28;20449;-66
2023/03/27 12:57:05;;;;;;;1.67;1.30;;;8.70;43.80;;;;;;5076570;28;20454;-66
2023/03/27 12:59:35;;;;;;;1.97;1.53;;;8.30;45.80;;;;;;5076465;28;20457;-68
2023/03/27 13:02:31;;;;;;;3.30;1.23;;;8.00;47.00;;;;;;5076724;28;20819;-68
2023/03/27 13:05:42;;;;;;;2.63;1.23;;;7.80;46.60;;;;;;5076253;28;20450;-67
2023/03/27 13:08:49;;;;;;;3.47;1.40;;;7.30;52.90;;;;;;5060523;28;20489;-67
2023/03/27 13:11:34;;;;;;;3.87;1.70;;;6.80;76.00;;;;;;5068425;28;20791;-68
2023/03/27 13:14:31;;;;;;;2.40;1.67;;;6.40;85.90;;;;;;5076684;28;20537;-68
2023/03/27 13:17:14;;;;;;;4.63;1.47;;;6.50;91.80;;;;;;5074096;28;20454;-67
2023/03/27 13:19:52;;;;;;;1.30;1.20;;;6.90;96.10;;;;;;5076164;28;20439;-66
2023/03/27 13:22:34;;;;;;;2.07;1.40;;;8.10;97.70;;;;;;5076167;28;20443;-67